Latest Weather Observations for Goulburn Airport

IDN60901

Issued at 7:31 am EST Thursday 7 May 2015 (issued every 10 minutes, with the page automatically refreshed every 10 minutes)

About weather observations | Map of Canberra area stations | Latest observations for Canberra area | Other Formats
Station Details ID: 070330 Name: GOULBURN AIRPORT AWS Lat: -34.81 Lon: 149.73 Height: 640.0 m
Data from the previous 72 hours. | See also: Recent months at Goulburn Airport
Date/Time
EST
Tmp

°C
App
Tmp
°C
Dew
Point
°C
Rel
Hum
%
Delta-T

°C
Wind Press
QNH
hPa
Press
MSL
hPa
Rain
since
9 am
mm
Dir
 
Spd
km/h
Gust
km/h
Spd
kts
Gust
kts
07/07:30am 7.5 2.7 4.5 81 1.4 W 19 28 10 15 1017.5 1017.6 0.0
07/07:00am 6.6 1.7 4.1 84 1.1 WNW 19 26 10 14 1017.3 1017.4 0.0
07/06:47am 6.8 2.3 4.1 83 1.2 W 17 24 9 13 1017.1 1017.2 0.0
07/06:30am 6.9 2.4 4.4 84 1.1 WNW 17 26 9 14 1017.0 1017.1 0.0
07/06:04am 6.9 1.4 4.2 83 1.2 WNW 22 33 12 18 1016.7 1016.8 0.0
07/06:00am 7.1 1.7 4.4 83 1.2 WNW 22 32 12 17 1016.7 1016.8 0.0
07/05:30am 7.8 2.8 4.7 81 1.4 W 20 30 11 16 1016.8 1016.9 0.0
07/05:06am 7.9 2.9 4.8 81 1.4 WNW 20 30 11 16 1016.6 1016.7 0.0
07/05:00am 7.7 2.9 4.5 80 1.5 WNW 19 26 10 14 1016.6 1016.7 0.0
07/04:30am 7.7 2.6 4.3 79 1.5 W 20 28 11 15 1016.6 1016.7 0.0
07/04:00am 8.1 1.4 3.9 75 1.9 WNW 28 35 15 19 1016.4 1016.6 0.0
07/03:30am 8.4 1.3 3.8 73 2.1 WNW 30 41 16 22 1016.6 1016.7 0.0
07/03:00am 8.4 2.5 3.8 73 2.1 WNW 24 33 13 18 1016.8 1016.9 0.0
07/02:30am 8.2 3.1 3.9 74 1.9 WNW 20 30 11 16 1016.9 1017.0 0.0
07/02:00am 7.5 2.3 3.7 77 1.7 W 20 28 11 15 1017.1 1017.2 0.0
07/01:30am 7.4 2.2 3.6 77 1.7 W 20 30 11 16 1017.3 1017.4 0.0
07/01:00am 7.4 3.2 3.6 77 1.7 W 15 24 8 13 1017.7 1017.9 0.0
07/12:30am 6.7 1.6 3.1 78 1.6 WNW 19 26 10 14 1017.7 1017.9 0.0
 
Date/Time
EST
Tmp

°C
App
Tmp
°C
Dew
Point
°C
Rel
Hum
%
Delta-T

°C
Wind Press
QNH
hPa
Press
MSL
hPa
Rain
since
9 am
mm
Dir
 
Spd
km/h
Gust
km/h
Spd
kts
Gust
kts
06/11:30pm 6.5 2.5 2.6 76 1.7 W 13 19 7 10 1017.7 1017.9 0.0
06/11:00pm 7.3 3.3 3.0 74 1.9 W 13 17 7 9 1017.8 1018.0 0.0
06/10:30pm 6.5 1.6 2.2 74 1.8 W 17 22 9 12 1017.8 1018.0 0.0
06/10:00pm 6.9 2.1 2.4 73 1.9 W 17 26 9 14 1017.6 1017.8 0.0
06/09:30pm 7.0 1.8 2.5 73 1.9 W 19 24 10 13 1017.4 1017.5 0.0
06/09:00pm 7.3 1.5 2.4 71 2.1 WNW 22 30 12 16 1017.3 1017.4 0.0
06/08:30pm 7.4 0.5 2.3 70 2.2 WNW 28 41 15 22 1017.1 1017.2 0.0
06/08:00pm 7.7 0.8 2.4 69 2.3 WNW 28 41 15 22 1017.1 1017.2 0.0
06/07:30pm 7.9 1.4 2.6 69 2.3 WNW 26 32 14 17 1017.2 1017.3 0.0
06/07:00pm 7.5 2.1 2.2 69 2.3 WNW 20 26 11 14 1017.1 1017.2 0.0
06/06:30pm 8.5 3.3 2.7 67 2.5 W 19 26 10 14 1017.0 1017.1 0.0
06/05:30pm 8.9 2.8 2.5 64 2.8 W 24 32 13 17 1016.1 1016.2 0.0
06/05:00pm 9.7 4.5 2.6 61 3.1 W 19 26 10 14 1015.9 1016.0 0.0
06/04:30pm 10.3 3.0 2.4 58 3.5 W 30 43 16 23 1015.7 1015.8 0.0
06/04:00pm 11.0 3.3 2.3 55 3.9 W 32 46 17 25 1015.7 1015.8 0.0
06/03:30pm 11.2 2.3 2.8 56 3.8 W 39 50 21 27 1015.6 1015.7 0.0
06/03:00pm 11.7 3.1 2.5 53 4.1 WNW 37 50 20 27 1015.3 1015.4 0.0
06/02:30pm 11.4 3.1 2.2 53 4.1 W 35 48 19 26 1015.4 1015.5 0.0
06/02:00pm 12.1 4.0 3.1 54 4.1 W 35 54 19 29 1015.2 1015.3 0.0
06/01:44pm 10.4 2.6 1.8 55 3.8 W 32 50 17 27 1015.4 1015.5 0.0
06/01:30pm 10.3 2.3 1.9 56 3.7 W 33 46 18 25 1015.4 1015.5 0.0
06/01:00pm 12.1 3.5 2.8 53 4.2 WNW 37 50 20 27 1015.4 1015.5 0.0
06/12:56pm 12.4 3.7 3.9 56 4.0 W 39 57 21 31 1015.3 1015.4 0.0
06/12:30pm 11.4 2.1 2.7 55 3.9 WNW 41 57 22 31 1015.4 1015.5 0.0
06/12:10pm 10.0 0.5 1.6 56 3.6 W 41 59 22 32 1015.7 1015.8 0.0
06/12:00pm 9.8 -0.1 1.5 56 3.6 W 43 57 23 31 1015.8 1015.9 0.0
06/11:48am 10.7 1.5 1.5 53 4.0 W 39 57 21 31 1015.7 1015.8 0.0
06/11:30am 11.3 1.9 2.3 54 4.0 WNW 41 56 22 30 1015.7 1015.8 0.0
06/11:00am 10.6 0.6 2.4 57 3.6 WNW 44 57 24 31 1015.5 1015.6 0.0
06/10:30am 10.0 -0.8 1.9 57 3.5 W 48 67 26 36 1015.2 1015.3 0.0
06/10:11am 9.7 -1.1 1.8 58 3.4 W 48 67 26 36 1015.0 1015.1 0.0
06/10:00am 10.0 0.1 2.8 61 3.2 W 44 61 24 33 1015.0 1015.1 0.0
06/09:32am 8.9 1.3 2.7 65 2.7 W 32 52 17 28 1015.1 1015.2 0.0
06/09:30am 8.8 1.6 2.8 66 2.6 W 30 44 16 24 1015.1 1015.2 0.0
06/09:00am 8.1 0.7 2.1 66 2.6 W 30 44 16 24 1015.2 1015.3 0.0
06/08:30am 7.8 0.9 2.7 70 2.2 WNW 28 37 15 20 1015.2 1015.3 0.0
06/08:00am 7.0 0.9 2.7 74 1.9 WNW 24 35 13 19 1014.6 1014.7 0.0
06/07:30am 6.0 0.8 2.3 77 1.6 WNW 19 26 10 14 1014.2 1014.3 0.0
06/07:00am 5.0 -0.9 1.8 80 1.3 WNW 22 28 12 15 1013.8 1013.9 0.0
06/06:30am 5.0 -0.9 1.7 79 1.4 WNW 22 28 12 15 1013.6 1013.6 0.0
06/06:00am 4.8 -0.6 1.5 79 1.4 WNW 19 24 10 13 1013.4 1013.4 0.0
06/05:30am 5.1 -0.4 1.8 79 1.4 WNW 20 26 11 14 1013.0 1013.1 0.0
06/05:00am 5.2 0.3 1.7 78 1.5 WNW 17 22 9 12 1012.7 1012.8 0.0
06/04:30am 5.1 -0.2 1.6 78 1.4 WNW 19 22 10 12 1012.6 1012.7 0.0
06/04:00am 5.2 0.6 1.3 76 1.6 NW 15 19 8 10 1012.3 1012.4 0.0
06/03:30am 5.6 1.3 1.2 73 1.8 WNW 13 20 7 11 1012.2 1012.2 0.0
06/03:00am 5.9 1.3 1.4 73 1.9 NW 15 20 8 11 1012.2 1012.2 0.0
06/02:30am 5.8 0.2 1.2 72 1.9 WNW 20 26 11 14 1011.7 1011.7 0.0
06/02:00am 7.0 0.3 1.5 68 2.3 W 26 39 14 21 1011.9 1011.9 0.0
06/01:30am 7.2 -0.8 1.5 67 2.4 W 33 43 18 23 1011.7 1011.7 0.0
06/01:00am 7.0 1.0 1.3 67 2.4 W 22 30 12 16 1012.1 1012.1 0.0
06/12:30am 8.0 0.5 1.2 62 2.9 W 30 43 16 23 1011.8 1011.8 0.0
06/12:13am 8.4 1.3 1.6 62 2.9 W 28 43 15 23 1011.1 1011.2 0.0
06/12:00am 7.8 3.6 1.6 65 2.6 SW 13 24 7 13 1012.0 1012.0 0.0
 
Date/Time
EST
Tmp

°C
App
Tmp
°C
Dew
Point
°C
Rel
Hum
%
Delta-T

°C
Wind Press
QNH
hPa
Press
MSL
hPa
Rain
since
9 am
mm
Dir
 
Spd
km/h
Gust
km/h
Spd
kts
Gust
kts
05/11:30pm 8.9 4.4 2.0 62 3.0 WSW 15 22 8 12 1011.6 1011.6 0.0
05/11:21pm 9.1 2.9 2.0 61 3.1 WSW 24 43 13 23 1011.3 1011.4 0.0
05/11:02pm 9.6 0.9 2.0 59 3.3 W 37 56 20 30 1010.4 1010.4 0.0
05/11:00pm 9.8 0.7 1.9 58 3.5 W 39 56 21 30 1010.3 1010.3 0.0
05/10:52pm 10.0 1.3 1.9 57 3.5 W 37 56 20 30 1010.3 1010.3 0.0
05/10:30pm 10.1 1.9 2.7 60 3.3 W 35 46 19 25 1010.4 1010.4 0.0
05/10:00pm 10.4 3.1 2.7 59 3.4 W 30 41 16 22 1010.6 1010.6 0.0
05/09:30pm 10.0 4.7 2.8 61 3.2 W 20 28 11 15 1010.8 1010.8 0.0
05/09:00pm 10.8 4.3 2.6 57 3.7 WNW 26 37 14 20 1010.5 1010.5 0.0
05/08:30pm 11.3 5.1 2.3 54 4.0 W 24 37 13 20 1010.4 1010.4 0.0
05/08:00pm 12.2 5.6 2.1 50 4.5 W 26 35 14 19 1010.1 1010.1 0.0
05/07:39pm 12.9 4.6 1.9 47 4.9 W 35 54 19 29 1009.7 1009.8 0.0
05/07:30pm 13.2 4.8 1.5 45 5.2 W 35 50 19 27 1009.6 1009.7 0.0
05/07:16pm 13.6 4.9 1.9 45 5.3 W 37 56 20 30 1009.1 1009.1 0.0
05/07:00pm 13.8 6.3 1.5 43 5.5 WNW 30 39 16 21 1008.7 1008.7 0.0
05/06:33pm 14.3 6.1 2.5 45 5.4 W 35 54 19 29 1007.9 1007.9 0.0
05/06:30pm 14.7 6.2 2.9 45 5.5 W 37 54 20 29 1007.9 1007.9 0.0
05/06:28pm 14.8 6.3 3.3 46 5.4 W 37 54 20 29 1007.8 1007.8 0.0
05/06:00pm 14.7 8.8 6.0 56 4.3 W 26 35 14 19 1007.2 1007.2 0.0
05/05:30pm 16.2 8.5 5.5 49 5.3 WNW 35 48 19 26 1006.2 1006.2 0.0
05/05:00pm 16.5 8.8 5.5 48 5.5 W 35 50 19 27 1005.7 1005.7 0.0
05/04:38pm 18.1 9.6 5.3 43 6.4 W 39 59 21 32 1005.4 1005.3 0.0
05/04:30pm 18.8 11.5 5.6 42 6.7 WNW 33 50 18 27 1005.1 1005.0 0.0
05/04:04pm 19.3 10.0 5.7 41 6.9 WNW 44 63 24 34 1004.8 1004.8 0.0
05/04:00pm 19.3 9.2 5.7 41 6.9 WNW 48 63 26 34 1004.7 1004.7 0.0
05/03:46pm 19.9 9.5 5.9 40 7.2 NW 50 69 27 37 1004.7 1004.7 0.0
05/03:37pm 20.1 9.2 5.7 39 7.4 WNW 52 78 28 42 1004.5 1004.5 0.0
05/03:30pm 20.2 11.2 6.2 40 7.2 NW 43 67 23 36 1004.6 1004.6 0.0
05/03:00pm 20.1 10.2 6.4 41 7.1 NW 48 74 26 40 1004.6 1004.6 0.0
05/02:30pm 20.4 11.1 6.0 39 7.4 NW 44 63 24 34 1004.5 1004.5 0.0
05/02:29pm 20.6 11.5 6.9 41 7.2 NW 44 63 24 34 1004.5 1004.5 0.0
05/02:00pm 20.3 11.5 7.3 43 6.9 NW 43 57 23 31 1004.5 1004.5 0.0
05/01:30pm 19.8 10.0 7.2 44 6.6 NW 48 67 26 36 1005.0 1004.9 0.0
05/01:01pm 20.0 9.7 6.7 42 6.9 NW 50 70 27 38 1005.4 1005.3 0.0
05/01:00pm 20.1 9.9 6.8 42 7.0 NW 50 63 27 34 1005.3 1005.2 0.0
05/12:30pm 20.2 11.2 7.2 43 6.8 NW 44 65 24 35 1005.7 1005.7 0.0
05/12:01pm 19.7 10.4 5.0 38 7.4 NW 43 63 23 34 1006.6 1006.5 0.0
05/12:00pm 20.2 11.5 6.2 40 7.3 NW 41 54 22 29 1006.7 1006.6 0.0
05/11:30am 19.4 10.9 5.1 39 7.2 NW 39 57 21 31 1007.2 1007.2 0.0
05/11:13am 19.1 10.4 6.2 43 6.6 NW 41 65 22 35 1007.4 1007.4 0.0
05/11:00am 19.2 10.4 7.3 46 6.3 NW 43 57 23 31 1007.8 1007.8 0.0
05/10:38am 18.7 9.8 7.5 48 5.9 NW 44 65 24 35 1008.4 1008.4 0.0
05/10:30am 18.2 7.9 6.7 47 5.9 NW 50 65 27 35 1008.3 1008.3 0.0
05/10:01am 17.6 10.1 6.2 47 5.8 NW 35 54 19 29 1008.8 1008.8 0.0
05/10:00am 17.8 10.6 7.5 51 5.4 NW 35 46 19 25 1008.9 1008.9 0.0
05/09:45am 17.1 10.0 8.0 55 4.8 NW 35 54 19 29 1009.0 1009.0 0.0
05/09:30am 16.8 10.5 9.0 60 4.2 NW 32 41 17 22 1009.3 1009.3 0.0
05/09:07am 16.1 10.5 8.8 62 3.9 NW 28 48 15 26 1009.3 1009.3 0.0
05/09:00am 15.8 10.9 9.9 68 3.2 NW 26 37 14 20 1009.4 1009.4 0.0
05/08:30am 13.4 9.5 9.6 78 2.0 WNW 20 26 11 14 1010.0 1010.0 0.0
05/08:00am 13.5 10.1 10.5 82 1.6 WNW 19 24 10 13 1010.0 1010.0 0.0
05/07:30am 12.0 8.6 9.0 82 1.6 NW 17 20 9 11 1009.9 1009.9 0.0
05/07:00am 12.4 8.7 9.6 83 1.5 NW 19 26 10 14 1009.6 1009.7 0.0
05/06:30am 12.0 8.8 10.1 88 1.0 NNW 17 20 9 11 1009.6 1009.7 0.0
05/06:00am 12.5 9.7 11.2 92 0.7 NW 17 22 9 12 1010.1 1010.1 0.0
05/05:30am 9.2 6.8 8.6 96 0.3 WNW 11 13 6 7 1010.1 1010.1 0.0
05/05:00am 9.7 7.8 8.9 95 0.4 NW 9 9 5 5 1010.4 1010.4 0.0
05/04:30am 9.8 7.1 9.0 95 0.4 NNW 13 15 7 8 1010.7 1010.7 0.0
05/04:00am 9.2 6.4 8.7 97 0.3 NNW 13 15 7 8 1010.9 1010.9 0.0
05/03:30am 9.2 6.5 9.1 99 0.1 NW 13 15 7 8 1011.2 1011.3 0.0
05/03:00am 7.8 7.2 7.4 97 0.2 CALM 0 0 0 0 1011.8 1011.8 0.0
05/02:30am 7.1 6.3 6.5 96 0.3 CALM 0 0 0 0 1012.1 1012.1 0.0
05/02:00am 7.6 5.8 7.0 96 0.3 W 6 9 3 5 1012.5 1012.6 0.0
05/01:30am 7.7 5.3 7.0 95 0.3 WNW 9 9 5 5 1013.1 1013.2 0.0
05/01:00am 7.8 5.4 7.1 95 0.3 W 9 11 5 6 1013.3 1013.3 0.0
05/12:30am 9.1 7.0 8.2 94 0.4 NW 9 13 5 7 1013.6 1013.6 0.0
05/12:00am 10.1 7.2 9.8 98 0.2 NNW 15 17 8 9 1013.6 1013.6 0.0
 
Date/Time
EST
Tmp

°C
App
Tmp
°C
Dew
Point
°C
Rel
Hum
%
Delta-T

°C
Wind Press
QNH
hPa
Press
MSL
hPa
Rain
since
9 am
mm
Dir
 
Spd
km/h
Gust
km/h
Spd
kts
Gust
kts
04/11:30pm 7.5 6.8 7.1 97 0.2 CALM 0 0 0 0 1014.1 1014.2 0.0
04/11:00pm 7.4 6.6 6.7 95 0.3 CALM 0 0 0 0 1014.4 1014.5 0.0
04/10:30pm 8.1 7.5 7.2 94 0.4 CALM 0 0 0 0 1014.7 1014.8 0.0
04/10:00pm 8.8 8.4 8.2 96 0.3 CALM 0 0 0 0 1015.0 1015.1 0.0
04/09:30pm 8.2 7.5 6.8 91 0.7 CALM 0 0 0 0 1015.1 1015.2 0.0
04/09:00pm 9.6 9.3 8.7 94 0.5 CALM 0 0 0 0 1015.2 1015.3 0.0
04/08:30pm 9.9 9.7 9.0 94 0.5 CALM 0 0 0 0 1015.3 1015.4 0.0
04/08:00pm 9.5 9.0 7.8 89 0.8 CALM 0 0 0 0 1015.1 1015.2 0.0
04/07:30pm 11.0 10.9 9.3 89 0.9 CALM 0 0 0 0 1015.0 1015.1 0.0
04/07:00pm 11.9 11.4 9.5 85 1.3 NNE 2 6 1 3 1014.9 1014.9 0.0
04/06:30pm 13.3 12.4 10.7 84 1.4 NW 6 7 3 4 1014.6 1014.7 0.0
04/06:00pm 13.1 12.7 9.7 80 1.8 WNW 2 9 1 5 1014.5 1014.6 0.0
04/05:30pm 14.1 12.3 9.5 74 2.4 W 9 11 5 6 1014.3 1014.4 0.0
04/05:00pm 17.6 15.7 10.5 63 3.9 W 11 13 6 7 1014.3 1014.4 0.0
04/04:30pm 19.3 16.3 10.6 57 4.9 W 17 20 9 11 1014.3 1014.4 0.0
04/04:00pm 20.3 17.3 10.7 54 5.4 W 17 22 9 12 1014.4 1014.5 0.0
04/03:30pm 20.9 17.7 10.1 50 6.0 W 17 24 9 13 1014.2 1014.3 0.0
04/03:00pm 21.1 18.8 10.6 51 5.9 NW 13 17 7 9 1014.3 1014.4 0.0
04/02:30pm 21.0 19.2 10.8 52 5.8 NW 11 15 6 8 1014.4 1014.5 0.0
04/02:00pm 20.8 18.5 10.3 51 5.9 W 13 19 7 10 1014.6 1014.7 0.0
04/01:30pm 20.5 19.0 10.6 53 5.6 NW 9 17 5 9 1014.6 1014.7 0.0
04/01:00pm 20.2 19.3 11.4 57 5.0 NW 7 13 4 7 1015.0 1015.1 0.0
04/12:30pm 18.9 18.0 11.5 62 4.2 NNW 7 13 4 7 1015.7 1015.8 0.0
04/12:00pm 18.1 17.6 11.9 67 3.5 NW 6 11 3 6 1016.3 1016.5 0.0
04/11:30am 16.1 16.0 12.1 77 2.3 WSW 4 7 2 4 1017.0 1017.1 0.0
04/11:00am 14.6 14.0 12.3 86 1.3 S 7 11 4 6 1017.6 1017.8 0.0
04/10:39am 13.4 13.0 12.3 93 0.6 E 6 9 3 5 1017.8 1018.0 0.0
04/10:30am 12.8 12.3 12.5 98 0.2 SE 7 9 4 5 1017.8 1018.0 0.0
04/10:00am 11.5 11.5 11.3 99 0.1 NNE 2 7 1 4 1017.9 1018.1 0.0
04/09:30am 10.9 10.0 10.7 99 0.1 WNW 6 7 3 4 1017.9 1018.1 0.0
04/09:00am 10.0 8.9 9.9 99 0.1 WNW 6 9 3 5 1018.1 1018.3 0.2
04/08:30am 9.4 8.1 9.3 99 0.1 N 6 9 3 5 1018.3 1018.4 0.2
04/08:00am 8.7 8.0 8.4 98 0.1 NNW 2 7 1 4 1018.1 1018.3 0.2

Latest Capital City Observations: Canberra | Sydney | Melbourne | Brisbane | Adelaide | Perth | Hobart | Darwin

Other Formats:

Comma delimited format used in spreadsheet applications
http://www.bom.gov.au/fwo/IDN60903/IDN60903.95716.axf

JavaScript Object Notation format (JSON) in row-major order
http://www.bom.gov.au/fwo/IDN60903/IDN60903.95716.json